Latest Weather Observations for Noarlunga

IDS60901

Issued at 7:31 pm CST Saturday 27 August 2016 (issued every 10 minutes, with the page automatically refreshed every 10 minutes)

About weather observations | Map of Adelaide area stations | Latest observations for Adelaide area | Other Formats
Station Details ID: 023885 Name: NOARLUNGA Lat: -35.16 Lon: 138.51 Height: 55.0 m
Data from the previous 72 hours. | See also: Recent months at Noarlunga
Date/Time
CST
Temp
°C
App
Temp
°C
Dew
Point
°C
Rel
Hum
%
Delta-T
°C
Wind Press
QNH
hPa
Press
MSL
hPa
Rain since
9am
mm
Dir  Spd
km/h
Gust
km/h
Spd
kts
Gust
kts
27/07:30pm 14.0 10.0 2.9 47 5.0 NNE 13 19 7 10 - - 0.0
27/07:00pm 14.4 10.8 2.9 46 5.2 NNE 11 15 6 8 - - 0.0
27/06:30pm 14.5 11.0 3.3 47 5.1 N 11 15 6 8 - - 0.0
27/06:00pm 14.7 10.5 3.8 48 5.0 N 15 22 8 12 - - 0.0
27/05:30pm 15.0 10.5 4.1 48 5.0 N 17 22 9 12 - - 0.0
27/05:00pm 14.9 10.8 4.3 49 4.9 N 15 20 8 11 - - 0.0
27/04:30pm 15.4 10.5 3.9 46 5.3 N 19 28 10 15 - - 0.0
27/04:00pm 15.7 10.2 4.1 46 5.4 NNW 22 30 12 16 - - 0.0
27/03:30pm 15.5 10.2 5.1 50 4.9 N 22 35 12 19 - - 0.0
27/03:00pm 16.1 11.0 6.0 51 4.9 NNW 22 32 12 17 - - 0.0
27/02:30pm 15.5 10.4 6.0 53 4.6 N 22 35 12 19 - - 0.0
27/02:00pm 15.4 10.2 5.6 52 4.7 N 22 37 12 20 - - 0.0
27/01:30pm 14.7 9.1 5.5 54 4.4 NNW 24 39 13 21 - - 0.0
27/01:00pm 14.8 9.2 5.6 54 4.4 N 24 35 13 19 - - 0.0
27/12:30pm 14.3 7.6 5.4 55 4.2 N 30 43 16 23 - - 0.0
27/12:00pm 13.4 7.3 4.8 56 4.0 N 26 39 14 21 - - 0.0
27/11:30am 12.9 6.7 4.1 55 4.0 N 26 39 14 21 - - 0.0
27/11:00am 13.3 6.9 3.1 50 4.5 N 26 33 14 18 - - 0.0
27/10:30am 13.9 8.3 3.4 49 4.7 N 22 32 12 17 - - 0.0
27/10:00am 13.1 6.7 3.2 51 4.4 N 26 41 14 22 - - 0.0
27/09:30am 12.5 6.0 2.9 52 4.2 N 26 35 14 19 - - 0.0
27/09:00am 12.3 6.2 3.0 53 4.1 N 24 33 13 18 - - 0.0
27/08:30am 11.5 6.2 3.0 56 3.7 N 20 26 11 14 - - 0.0
27/08:00am 10.4 5.0 2.5 58 3.4 N 20 28 11 15 - - 0.0
27/07:30am 9.4 5.0 2.5 62 2.9 NNE 15 20 8 11 - - 0.0
27/07:00am 8.2 4.2 2.7 68 2.3 NNE 13 19 7 10 - - 0.0
27/06:30am 7.7 3.7 2.6 70 2.1 NNE 13 17 7 9 - - 0.0
27/06:00am 7.7 3.3 2.8 71 2.1 NNE 15 19 8 10 - - 0.0
27/05:30am 7.6 3.2 2.7 71 2.1 NNE 15 19 8 10 - - 0.0
27/05:00am 7.8 3.4 2.7 70 2.1 NNE 15 20 8 11 - - 0.0
27/04:30am 7.4 3.3 2.5 71 2.0 NNE 13 17 7 9 - - 0.0
27/04:00am 7.5 3.0 2.4 70 2.1 NNE 15 20 8 11 - - 0.0
27/03:30am 7.3 3.2 2.0 69 2.2 NNE 13 17 7 9 - - 0.0
27/03:00am 7.4 3.3 2.1 69 2.2 NE 13 19 7 10 - - 0.0
27/02:30am 7.5 3.7 2.0 68 2.3 NE 11 15 6 8 - - 0.0
27/02:00am 7.8 4.1 2.1 67 2.4 NE 11 15 6 8 - - 0.0
27/01:30am 7.4 3.7 2.1 69 2.2 NE 11 15 6 8 - - 0.0
27/01:00am 7.1 3.7 2.0 70 2.1 NE 9 13 5 7 - - 0.0
27/12:30am 7.5 3.8 2.2 69 2.2 NE 11 15 6 8 - - 0.0
27/12:00am 6.9 3.2 2.4 73 1.9 NE 11 15 6 8 - - 0.0
 
Date/Time
CST
Temp
°C
App
Temp
°C
Dew
Point
°C
Rel
Hum
%
Delta-T
°C
Wind Press
QNH
hPa
Press
MSL
hPa
Rain since
9am
mm
Dir  Spd
km/h
Gust
km/h
Spd
kts
Gust
kts
26/11:30pm 7.0 3.4 2.7 74 1.8 NE 11 15 6 8 - - 0.0
26/11:00pm 7.2 5.2 2.5 72 2.0 ENE 2 6 1 3 - - 0.0
26/10:30pm 7.7 5.3 2.4 69 2.2 ENE 4 4 2 2 - - 0.0
26/10:00pm 8.3 6.0 3.0 69 2.3 ENE 4 7 2 4 - - 0.0
26/09:30pm 8.7 6.0 2.9 67 2.5 ENE 6 7 3 4 - - 0.0
26/09:00pm 8.5 5.7 2.9 68 2.4 ENE 7 9 4 5 - - 0.0
26/08:30pm 8.3 6.0 3.0 69 2.3 W 4 9 2 5 - - 0.0
26/08:00pm 9.0 7.1 3.0 66 2.6 W 2 2 1 1 - - 0.0
26/07:30pm 9.6 7.3 2.9 63 2.9 W 4 4 2 2 - - 0.0
26/07:00pm 9.8 8.3 2.9 62 3.0 CALM 0 0 0 0 - - 0.0
26/06:30pm 10.5 8.5 2.4 57 3.5 W 2 4 1 2 - - 0.0
26/06:00pm 11.1 9.0 1.9 53 3.9 W 2 4 1 2 - - 0.0
26/05:30pm 12.2 10.0 3.2 54 4.0 W 4 4 2 2 - - 0.0
26/05:00pm 11.9 8.9 2.1 51 4.2 W 7 11 4 6 - - 0.0
26/04:30pm 13.4 10.0 2.0 46 5.0 W 9 15 5 8 - - 0.0
26/04:00pm 13.7 11.3 2.3 46 5.0 W 4 9 2 5 - - 0.0
26/03:30pm 13.4 11.2 3.2 50 4.6 NW 4 6 2 3 - - 0.0
26/03:00pm 12.9 10.1 1.9 47 4.8 W 6 13 3 7 - - 0.0
26/02:30pm 12.6 9.3 2.5 50 4.4 NW 9 17 5 9 - - 0.0
26/02:00pm 12.3 8.9 3.8 56 3.8 NW 11 17 6 9 - - 0.0
26/01:30pm 12.5 8.5 2.9 52 4.2 WNW 13 19 7 10 - - 0.0
26/01:00pm 12.8 10.3 4.5 57 3.8 NW 7 13 4 7 - - 0.0
26/12:30pm 12.5 9.2 2.7 51 4.3 NW 9 13 5 7 - - 0.0
26/12:00pm 12.4 9.6 3.1 53 4.1 WNW 7 11 4 6 - - 0.0
26/11:30am 12.4 9.8 4.1 57 3.8 NW 7 13 4 7 - - 0.0
26/11:00am 12.3 9.8 4.8 60 3.4 NW 7 11 4 6 - - 0.0
26/10:30am 11.9 9.4 4.9 62 3.2 WNW 7 11 4 6 - - 0.0
26/10:00am 11.9 9.9 4.2 59 3.5 SSW 4 7 2 4 - - 0.0
26/09:30am 11.4 9.6 5.5 67 2.7 SSW 4 6 2 3 - - 0.0
26/09:00am 10.5 8.8 5.9 73 2.1 SSW 4 6 2 3 - - 0.0
26/08:30am 9.7 8.3 5.5 75 1.9 SSW 2 4 1 2 - - 0.0
26/08:00am 8.8 7.8 5.4 79 1.5 CALM 0 2 0 1 - - 0.0
26/07:30am 8.0 6.5 4.9 81 1.4 SSW 2 2 1 1 - - 0.0
26/07:00am 7.1 5.4 4.2 82 1.3 SSW 2 4 1 2 - - 0.0
26/06:30am 6.8 4.7 4.1 83 1.2 SSW 4 6 2 3 - - 0.0
26/06:00am 6.5 4.5 4.2 85 1.0 SSW 4 4 2 2 - - 0.0
26/05:30am 6.4 4.4 4.2 86 0.9 SSW 4 6 2 3 - - 0.0
26/05:00am 6.6 4.6 4.3 85 1.0 SSW 4 6 2 3 - - 0.0
26/04:30am 7.1 4.8 4.8 85 1.0 SSW 6 6 3 3 - - 0.0
26/04:00am 7.2 5.3 4.7 84 1.1 SSW 4 4 2 2 - - 0.0
26/03:30am 7.9 6.5 5.4 84 1.1 SSW 2 4 1 2 - - 0.0
26/03:00am 8.0 6.6 5.5 84 1.1 SSW 2 2 1 1 - - 0.0
26/02:30am 8.0 6.2 5.3 83 1.2 SSW 4 4 2 2 - - 0.0
26/02:00am 8.3 6.9 5.6 83 1.2 SSW 2 2 1 1 - - 0.0
26/01:30am 8.1 6.7 5.4 83 1.2 SSW 2 4 1 2 - - 0.0
26/01:00am 8.0 6.6 5.3 83 1.2 SSW 2 2 1 1 - - 0.0
26/12:30am 8.1 7.1 5.4 83 1.2 CALM 0 0 0 0 - - 0.0
26/12:00am 7.8 5.9 5.1 83 1.2 SSW 4 4 2 2 - - 0.0
 
Date/Time
CST
Temp
°C
App
Temp
°C
Dew
Point
°C
Rel
Hum
%
Delta-T
°C
Wind Press
QNH
hPa
Press
MSL
hPa
Rain since
9am
mm
Dir  Spd
km/h
Gust
km/h
Spd
kts
Gust
kts
25/11:30pm 8.1 6.6 5.2 82 1.3 SSW 2 2 1 1 - - 0.0
25/11:00pm 8.0 6.1 5.1 82 1.3 SSW 4 4 2 2 - - 0.0
25/10:30pm 8.6 7.6 5.4 80 1.4 CALM 0 2 0 1 - - 0.0
25/10:00pm 9.0 8.0 5.7 80 1.5 CALM 0 0 0 0 - - 0.0
25/09:30pm 9.0 7.6 5.6 79 1.5 SSW 2 4 1 2 - - 0.0
25/09:00pm 9.7 8.7 5.7 76 1.8 CALM 0 0 0 0 - - 0.0
25/08:30pm 10.2 8.2 6.2 76 1.9 SSW 6 7 3 4 - - 0.0
25/08:00pm 10.3 8.6 6.1 75 2.0 SSW 4 6 2 3 - - 0.0
25/07:30pm 10.6 8.4 6.0 73 2.1 S 7 9 4 5 - - 0.0
25/07:00pm 10.9 8.3 6.1 72 2.2 S 9 13 5 7 - - 0.0
25/06:30pm 11.1 8.4 5.6 69 2.5 S 9 13 5 7 - - 0.0
25/06:00pm 11.7 9.5 6.2 69 2.6 WSW 7 11 4 6 - - 0.0
25/05:30pm 12.2 10.0 6.0 66 2.9 SW 7 13 4 7 - - 0.0
25/05:00pm 12.2 9.4 5.1 62 3.3 SW 9 19 5 10 - - 0.0
25/04:30pm 12.5 10.1 6.8 68 2.7 S 9 13 5 7 - - 0.0
25/04:00pm 12.7 9.0 6.3 65 3.0 SSW 15 22 8 12 - - 0.0
25/03:30pm 12.9 8.7 5.8 62 3.3 WSW 17 24 9 13 - - 0.0
25/03:00pm 13.8 9.9 5.4 57 4.0 WSW 15 20 8 11 - - 0.0
25/02:30pm 14.0 10.5 5.6 57 4.0 W 13 20 7 11 - - 0.0
25/02:00pm 13.8 10.3 5.4 57 4.0 WSW 13 22 7 12 - - 0.0
25/01:30pm 13.4 9.6 5.6 59 3.7 WSW 15 24 8 13 - - 0.0
25/01:00pm 13.1 9.6 5.3 59 3.6 W 13 22 7 12 - - 0.0
25/12:30pm 13.0 9.8 4.9 58 3.7 W 11 19 6 10 - - 0.0
25/12:00pm 13.1 10.3 5.0 58 3.8 W 9 15 5 8 - - 0.0
25/11:30am 12.9 9.6 4.8 58 3.7 W 11 17 6 9 - - 0.0
25/11:00am 12.7 9.8 4.9 59 3.6 WNW 9 13 5 7 - - 0.0
25/10:30am 12.7 10.2 4.7 58 3.7 SW 7 13 4 7 - - 0.0
25/10:00am 12.1 10.1 4.6 60 3.4 SSE 4 9 2 5 - - 0.0
25/09:30am 11.2 8.7 4.0 61 3.2 SE 6 7 3 4 - - 0.0
25/09:00am 10.6 8.4 3.4 61 3.2 E 4 6 2 3 - - 0.0
25/08:30am 9.1 7.0 3.7 69 2.4 E 4 6 2 3 - - 0.0
25/08:00am 7.4 5.2 3.1 74 1.8 E 4 6 2 3 - - 0.0
25/07:30am 5.7 3.0 2.9 82 1.2 ESE 6 9 3 5 - - 0.0
25/07:00am 4.2 1.2 1.9 85 0.9 ESE 7 9 4 5 - - 0.0
25/06:30am 4.4 2.0 2.1 85 0.9 E 4 6 2 3 - - 0.0
25/06:00am 4.4 1.6 2.1 85 0.9 ESE 6 7 3 4 - - 0.0
25/05:30am 5.0 1.7 2.4 83 1.1 ESE 9 11 5 6 - - 0.0
25/05:00am 5.5 2.2 2.5 81 1.2 E 9 11 5 6 - - 0.0
25/04:30am 5.9 2.6 2.7 80 1.3 E 9 11 5 6 - - 0.0
25/04:00am 6.2 3.3 2.8 79 1.4 E 7 9 4 5 - - 0.0
25/03:30am 6.3 4.8 2.9 79 1.4 CALM 0 0 0 0 - - 0.0
25/03:00am 6.8 4.5 2.9 76 1.6 ESE 4 7 2 4 - - 0.0
25/02:30am 7.4 4.2 3.1 74 1.8 ESE 9 15 5 8 - - 0.0
25/02:00am 8.3 4.7 3.2 70 2.2 ESE 11 19 6 10 - - 0.0
25/01:30am 8.4 4.0 2.8 68 2.4 E 15 20 8 11 - - 0.0
25/01:00am 8.4 3.3 2.8 68 2.4 E 19 24 10 13 - - 0.0
25/12:30am 8.4 3.7 3.1 69 2.3 E 17 20 9 11 - - 0.0
25/12:00am 8.8 4.5 3.0 67 2.5 ESE 15 24 8 13 - - 0.0
 
Date/Time
CST
Temp
°C
App
Temp
°C
Dew
Point
°C
Rel
Hum
%
Delta-T
°C
Wind Press
QNH
hPa
Press
MSL
hPa
Rain since
9am
mm
Dir  Spd
km/h
Gust
km/h
Spd
kts
Gust
kts
24/11:30pm 8.7 4.4 3.1 68 2.4 ESE 15 22 8 12 - - 0.0
24/11:00pm 8.6 4.3 3.2 69 2.3 ESE 15 20 8 11 - - 0.0
24/10:30pm 9.0 4.3 3.2 67 2.5 ESE 17 22 9 12 - - 0.0
24/10:00pm 9.2 4.1 3.2 66 2.6 ESE 19 24 10 13 - - 0.0
24/09:30pm 9.2 4.1 3.0 65 2.7 SE 19 24 10 13 - - 0.0
24/09:00pm 9.5 4.4 2.8 63 2.9 ESE 19 28 10 15 - - 0.0
24/08:30pm 9.3 4.1 2.6 63 2.8 ESE 19 24 10 13 - - 0.0
24/08:00pm 9.6 4.4 2.7 62 2.9 ESE 19 26 10 14 - - 0.0

Latest Capital City Observations: Canberra | Sydney | Melbourne | Brisbane | Adelaide | Perth | Hobart | Darwin

Other Formats:

Comma delimited format used in spreadsheet applications
http://www.bom.gov.au/fwo/IDS60901/IDS60901.94808.axf

JavaScript Object Notation format (JSON) in row-major order
http://www.bom.gov.au/fwo/IDS60901/IDS60901.94808.json